createdAt,value
2023-05-02T00:01:13.746Z,14.25
2023-05-02T00:05:15.478Z,14.57
2023-05-02T00:09:17.039Z,14.51
2023-05-02T00:13:18.449Z,14.40
2023-05-02T00:17:20.441Z,14.43
2023-05-02T00:21:22.017Z,14.60
2023-05-02T00:25:23.600Z,14.62
2023-05-02T00:29:25.038Z,14.39
2023-05-02T00:33:26.525Z,14.39
2023-05-02T00:37:28.572Z,14.25
2023-05-02T00:41:30.197Z,14.10
2023-05-02T00:45:32.880Z,14.29
2023-05-02T00:49:34.320Z,14.34
2023-05-02T00:53:36.009Z,14.24
2023-05-02T00:57:37.978Z,14.22
2023-05-02T01:01:57.540Z,14.45
2023-05-02T01:06:19.375Z,14.30
2023-05-02T01:10:41.816Z,14.34
2023-05-02T01:14:54.848Z,14.21
2023-05-02T01:18:59.563Z,14.53
2023-05-02T01:23:09.176Z,14.33
2023-05-02T01:27:24.684Z,14.14
2023-05-02T01:31:29.025Z,14.03
2023-05-02T01:35:33.740Z,14.02
2023-05-02T01:39:36.602Z,14.22
2023-05-02T01:43:39.463Z,14.01
2023-05-02T01:47:44.251Z,14.14
2023-05-02T01:51:47.836Z,14.04
2023-05-02T01:55:50.889Z,13.96
2023-05-02T01:59:55.299Z,14.22
2023-05-02T02:03:58.624Z,14.00
2023-05-02T02:08:00.228Z,13.97
2023-05-02T02:12:07.127Z,14.11
2023-05-02T02:16:12.607Z,14.40
2023-05-02T02:20:15.787Z,14.12
2023-05-02T02:24:20.961Z,14.36
2023-05-02T02:28:22.527Z,14.65
2023-05-02T02:32:24.623Z,14.36
2023-05-02T02:36:33.150Z,14.28
2023-05-02T02:40:42.077Z,14.05
2023-05-02T02:44:44.601Z,14.26
2023-05-02T02:49:01.933Z,14.18
2023-05-02T02:53:08.561Z,13.90
2023-05-02T02:57:18.648Z,14.16
2023-05-02T03:01:22.298Z,13.85
2023-05-02T03:05:24.474Z,13.80
2023-05-02T03:09:30.229Z,13.94
2023-05-02T03:13:31.834Z,14.22
2023-05-02T03:17:33.637Z,14.10
2023-05-02T03:21:35.536Z,14.12
2023-05-02T03:25:44.665Z,14.18
2023-05-02T03:29:51.270Z,13.68
2023-05-02T03:33:54.427Z,13.21
2023-05-02T03:37:56.552Z,13.08
2023-05-02T03:41:58.270Z,12.99
2023-05-02T03:46:06.915Z,13.00
2023-05-02T03:50:11.058Z,12.81
2023-05-02T03:54:13.219Z,12.67
2023-05-02T03:58:16.816Z,12.57
2023-05-02T04:02:20.133Z,12.31
2023-05-02T04:06:23.548Z,12.17
2023-05-02T04:10:31.734Z,12.15
2023-05-02T04:14:36.459Z,12.36
2023-05-02T04:18:39.068Z,12.42
2023-05-02T04:22:42.076Z,11.94
2023-05-02T04:26:43.643Z,12.26
2023-05-02T04:30:49.300Z,12.17
2023-05-02T04:34:52.692Z,11.80
2023-05-02T04:38:55.426Z,11.59
2023-05-02T04:42:57.459Z,11.63
2023-05-02T04:47:04.669Z,11.42
2023-05-02T04:51:06.274Z,11.63
2023-05-02T04:55:08.146Z,11.35
2023-05-02T04:59:10.252Z,11.52
2023-05-02T05:03:12.326Z,11.25
2023-05-02T05:07:13.885Z,11.53
2023-05-02T05:11:17.497Z,11.40
2023-05-02T05:15:23.850Z,11.51
2023-05-02T05:19:29.897Z,11.76
2023-05-02T05:23:32.802Z,11.64
2023-05-02T05:27:35.782Z,11.46
2023-05-02T05:31:37.783Z,11.53
2023-05-02T05:35:40.415Z,11.57
2023-05-02T05:39:41.974Z,11.63
2023-05-02T05:43:44.419Z,11.46
2023-05-02T05:47:46.150Z,11.51
2023-05-02T05:51:48.028Z,11.37
2023-05-02T05:55:51.085Z,11.50
2023-05-02T05:59:53.967Z,11.47
2023-05-02T06:03:56.252Z,11.62
2023-05-02T06:07:58.481Z,11.62
2023-05-02T06:12:02.129Z,11.77
2023-05-02T06:16:06.364Z,11.75
2023-05-02T06:20:09.299Z,11.62
2023-05-02T06:24:10.754Z,11.62
2023-05-02T06:28:12.241Z,11.51
2023-05-02T06:32:13.779Z,11.80
2023-05-02T06:36:15.318Z,11.55
2023-05-02T06:40:16.779Z,11.74
2023-05-02T06:44:18.187Z,12.08
2023-05-02T06:48:19.925Z,12.19
2023-05-02T06:52:21.385Z,12.40
2023-05-02T06:56:25.660Z,12.24
2023-05-02T07:00:27.349Z,12.79
2023-05-02T07:04:28.793Z,12.37
2023-05-02T07:08:30.359Z,12.58
2023-05-02T07:12:31.794Z,12.44
2023-05-02T07:16:33.307Z,12.61
2023-05-02T07:20:34.759Z,12.86
2023-05-02T07:24:36.798Z,13.06
2023-05-02T07:28:38.236Z,13.26
2023-05-02T07:32:39.758Z,12.97
2023-05-02T07:36:41.194Z,13.06
2023-05-02T07:40:43.450Z,13.02
2023-05-02T07:44:45.137Z,13.31
2023-05-02T07:48:46.682Z,13.02
2023-05-02T07:52:48.126Z,13.03
2023-05-02T07:56:49.521Z,13.56
2023-05-02T08:00:50.954Z,13.25
2023-05-02T08:04:52.466Z,12.82
2023-05-02T08:08:54.396Z,12.69
2023-05-02T08:12:56.056Z,12.61
2023-05-02T08:16:59.049Z,12.98
2023-05-02T08:21:00.523Z,12.99
2023-05-02T08:25:01.977Z,13.02
2023-05-02T08:29:04.444Z,13.31
2023-05-02T08:33:05.994Z,13.15
2023-05-02T08:37:12.002Z,13.15
2023-05-02T08:41:17.952Z,12.88
2023-05-02T08:45:20.832Z,13.30
2023-05-02T08:49:22.919Z,13.50
2023-05-02T08:53:25.010Z,13.57
2023-05-02T08:57:28.641Z,13.82
2023-05-02T09:01:33.401Z,13.90
2023-05-02T09:05:41.029Z,13.72
2023-05-02T09:09:42.500Z,13.96
2023-05-02T09:13:48.416Z,14.03
2023-05-02T09:17:49.884Z,13.91
2023-05-02T09:21:51.715Z,14.28
2023-05-02T09:25:53.188Z,14.45
2023-05-02T09:30:24.391Z,14.95
2023-05-02T09:34:25.838Z,14.36
2023-05-02T09:38:27.328Z,14.27
2023-05-02T09:42:32.612Z,15.00
2023-05-02T09:46:45.562Z,14.45
2023-05-02T09:50:47.109Z,14.46
2023-05-02T09:54:50.670Z,14.51
2023-05-02T09:58:52.230Z,14.19
2023-05-02T10:02:53.946Z,14.13
2023-05-02T10:06:56.104Z,13.97
2023-05-02T10:10:59.301Z,14.77
2023-05-02T10:15:04.158Z,14.85
2023-05-02T10:19:12.632Z,14.67
2023-05-02T10:23:15.566Z,15.09
2023-05-02T10:27:17.128Z,14.65
2023-05-02T10:31:19.106Z,14.57
2023-05-02T10:35:21.542Z,15.21
2023-05-02T10:39:24.852Z,14.72
2023-05-02T10:43:30.930Z,14.46
2023-05-02T10:47:32.858Z,14.84
2023-05-02T10:51:36.203Z,14.53
2023-05-02T10:55:37.727Z,15.65
2023-05-02T10:59:40.595Z,15.38
2023-05-02T11:04:02.298Z,15.05
2023-05-02T11:08:15.681Z,14.99
2023-05-02T11:12:47.749Z,15.52
2023-05-02T11:17:15.585Z,15.20
2023-05-02T11:21:32.743Z,15.56
2023-05-02T11:25:37.043Z,14.84
2023-05-02T11:29:58.859Z,15.62
2023-05-02T11:34:02.052Z,15.38
2023-05-02T11:38:10.038Z,15.38
2023-05-02T11:42:28.032Z,14.63
2023-05-02T11:46:30.976Z,14.95
2023-05-02T11:50:34.306Z,14.81
2023-05-02T11:54:36.322Z,14.45
2023-05-02T11:58:37.887Z,14.73
2023-05-02T12:02:44.101Z,14.80
2023-05-02T12:06:56.387Z,14.64
2023-05-02T12:10:57.876Z,14.77
2023-05-02T12:15:07.178Z,15.30
2023-05-02T12:19:08.956Z,15.01
2023-05-02T12:23:11.166Z,15.02
2023-05-02T12:27:14.710Z,15.85
2023-05-02T12:31:16.470Z,15.62
2023-05-02T12:35:23.068Z,15.53
2023-05-02T12:39:38.537Z,15.83
2023-05-02T12:43:46.166Z,15.72
2023-05-02T12:47:47.606Z,15.93
2023-05-02T12:51:53.391Z,16.20
2023-05-02T12:56:04.630Z,15.98
2023-05-02T13:00:06.918Z,15.77
2023-05-02T13:04:08.496Z,16.37
2023-05-02T13:08:09.978Z,15.86
2023-05-02T13:12:11.528Z,16.10
2023-05-02T13:16:13.115Z,16.13
2023-05-02T13:20:14.801Z,16.47
2023-05-02T13:24:17.453Z,16.09
2023-05-02T13:28:19.107Z,16.24
2023-05-02T13:32:21.726Z,16.39
2023-05-02T13:36:24.456Z,16.33
2023-05-02T13:40:25.983Z,16.57
2023-05-02T13:44:27.483Z,16.13
2023-05-02T13:48:29.962Z,16.69
2023-05-02T13:52:31.599Z,16.86
2023-05-02T13:56:33.140Z,16.19
2023-05-02T14:00:34.862Z,16.51
2023-05-02T14:04:36.353Z,16.70
2023-05-02T14:08:38.015Z,16.76
2023-05-02T14:12:39.481Z,16.64
2023-05-02T14:16:41.036Z,16.32
2023-05-02T14:20:42.934Z,15.28
2023-05-02T14:24:44.396Z,15.26
2023-05-02T14:28:46.380Z,15.90
2023-05-02T14:32:47.908Z,16.34
2023-05-02T14:36:49.436Z,15.91
2023-05-02T14:40:51.299Z,16.27
2023-05-02T14:44:53.428Z,16.65
2023-05-02T14:48:54.888Z,16.73
2023-05-02T14:52:56.553Z,16.35
2023-05-02T14:56:59.477Z,16.37
2023-05-02T15:01:01.249Z,16.28
2023-05-02T15:05:05.651Z,16.11
2023-05-02T15:09:07.412Z,16.12
2023-05-02T15:13:08.998Z,16.20
2023-05-02T15:17:10.630Z,15.99
2023-05-02T15:21:12.267Z,16.81
2023-05-02T15:25:13.727Z,16.45
2023-05-02T15:29:15.171Z,16.23
2023-05-02T15:33:16.642Z,16.62
2023-05-02T15:37:18.061Z,16.62
2023-05-02T15:41:19.485Z,16.78
2023-05-02T15:45:20.921Z,16.74
2023-05-02T15:49:24.452Z,16.56
2023-05-02T15:53:26.201Z,16.38
2023-05-02T15:57:27.734Z,16.40
2023-05-02T16:01:29.265Z,16.46
2023-05-02T16:05:31.001Z,16.72
2023-05-02T16:09:32.547Z,16.99
2023-05-02T16:13:34.093Z,16.85
2023-05-02T16:17:35.776Z,16.47
2023-05-02T16:21:37.311Z,16.48
2023-05-02T16:25:39.023Z,16.44
2023-05-02T16:29:40.693Z,16.53
2023-05-02T16:33:42.787Z,16.57
2023-05-02T16:37:44.250Z,16.43
2023-05-02T16:41:45.708Z,17.02
2023-05-02T16:45:47.188Z,16.67
2023-05-02T16:49:53.482Z,17.32
2023-05-02T16:53:55.076Z,17.84
2023-05-02T16:57:56.555Z,18.51
2023-05-02T17:01:58.131Z,19.56
2023-05-02T17:06:01.133Z,19.35
2023-05-02T17:10:04.265Z,18.73
2023-05-02T17:14:06.343Z,18.86
2023-05-02T17:18:08.106Z,18.26
2023-05-02T17:22:09.825Z,18.67
2023-05-02T17:26:15.464Z,17.75
2023-05-02T17:30:16.957Z,16.92
2023-05-02T17:34:18.389Z,16.96
2023-05-02T17:38:20.245Z,16.52
2023-05-02T17:42:21.674Z,16.10
2023-05-02T17:46:23.186Z,15.30
2023-05-02T17:50:24.758Z,15.37
2023-05-02T17:54:26.534Z,15.22
2023-05-02T17:58:28.221Z,15.58
2023-05-02T18:02:29.994Z,15.02
2023-05-02T18:06:32.016Z,15.09
2023-05-02T18:10:37.899Z,14.43
2023-05-02T18:14:39.413Z,14.40
2023-05-02T18:18:41.527Z,13.96
2023-05-02T18:22:43.020Z,14.17
2023-05-02T18:26:44.590Z,14.30
2023-05-02T18:30:46.540Z,14.02
2023-05-02T18:34:48.351Z,13.96
2023-05-02T18:38:49.768Z,13.68
2023-05-02T18:42:51.476Z,13.70
2023-05-02T18:46:53.192Z,13.58
2023-05-02T18:50:57.497Z,13.39
2023-05-02T18:54:59.667Z,13.51
2023-05-02T18:59:04.578Z,13.35
2023-05-02T19:03:06.237Z,13.33
2023-05-02T19:07:07.778Z,13.37
2023-05-02T19:11:09.412Z,13.40
2023-05-02T19:15:11.487Z,13.50
2023-05-02T19:19:12.937Z,13.37
2023-05-02T19:23:20.268Z,13.25
2023-05-02T19:27:22.060Z,13.15
2023-05-02T19:31:23.653Z,12.97
2023-05-02T19:35:25.539Z,12.99
2023-05-02T19:39:28.334Z,12.81
2023-05-02T19:43:29.794Z,12.72
2023-05-02T19:47:32.788Z,12.54
2023-05-02T19:51:35.292Z,12.71
2023-05-02T19:55:36.924Z,12.68
2023-05-02T19:59:38.471Z,12.57
2023-05-02T20:03:40.025Z,12.28
2023-05-02T20:07:41.557Z,12.33
2023-05-02T20:11:42.993Z,12.24
2023-05-02T20:15:44.452Z,12.05
2023-05-02T20:19:46.106Z,11.89
2023-05-02T20:23:47.644Z,12.09
2023-05-02T20:27:50.453Z,12.14
2023-05-02T20:31:52.860Z,12.27
2023-05-02T20:35:55.854Z,12.26
2023-05-02T20:39:57.453Z,12.14
2023-05-02T20:44:01.186Z,11.92
2023-05-02T20:48:02.743Z,11.85
2023-05-02T20:52:05.423Z,12.00
2023-05-02T20:56:07.150Z,11.67
2023-05-02T21:00:11.195Z,11.91
2023-05-02T21:04:12.767Z,11.78
2023-05-02T21:08:14.225Z,11.90
2023-05-02T21:12:16.176Z,11.87
2023-05-02T21:16:18.923Z,11.66
2023-05-02T21:20:20.453Z,11.94
2023-05-02T21:24:21.876Z,11.96
2023-05-02T21:28:23.291Z,11.56
2023-05-02T21:32:25.799Z,11.76
2023-05-02T21:36:27.447Z,11.59
2023-05-02T21:40:31.430Z,11.84
2023-05-02T21:44:33.012Z,11.72
2023-05-02T21:48:34.443Z,11.81
2023-05-02T21:52:36.217Z,11.60
2023-05-02T21:56:37.827Z,11.53
2023-05-02T22:00:40.627Z,11.41
2023-05-02T22:04:42.992Z,11.59
2023-05-02T22:08:44.566Z,11.53
2023-05-02T22:12:46.581Z,11.45
2023-05-02T22:16:48.053Z,11.61
2023-05-02T22:20:49.526Z,11.47
2023-05-02T22:24:51.283Z,11.47
2023-05-02T22:28:52.883Z,11.14
2023-05-02T22:32:54.368Z,11.31
2023-05-02T22:36:55.848Z,11.19
2023-05-02T22:40:57.303Z,11.10
2023-05-02T22:44:58.798Z,11.25
2023-05-02T22:49:00.275Z,11.01
2023-05-02T22:53:03.836Z,11.13
2023-05-02T22:57:05.764Z,11.17
2023-05-02T23:01:07.430Z,11.08
2023-05-02T23:05:09.453Z,11.03
2023-05-02T23:09:11.073Z,11.12
2023-05-02T23:13:12.574Z,11.16
2023-05-02T23:17:14.234Z,11.31
2023-05-02T23:21:16.626Z,11.14
2023-05-02T23:25:18.514Z,11.09
2023-05-02T23:29:20.132Z,11.20
2023-05-02T23:33:21.645Z,10.81
2023-05-02T23:37:23.367Z,11.25
2023-05-02T23:41:26.183Z,11.09
2023-05-02T23:45:27.620Z,10.91
2023-05-02T23:49:29.075Z,11.14
2023-05-02T23:53:30.572Z,11.11
2023-05-02T23:57:32.217Z,11.23
